ENGM

Oslo Gardermoen Airport

Oslo, Norway
METAR ENGM 210350Z VRB02KT CAVOK 06/04 Q1017 NOSIG
Observed Flight Rules
Aug-21 @ 03:50 UTC (22 minutes ago) Visual Flight Rules
Wind Visibility Clouds
Variable at 2 knots 10,000+ meters
  • Clear skies
Temperatures Readings
Current 6°C / 43°F
Dewpoint 4°C / 39°F
Humidity 87%
Altimeter 30.03" Hg
Pressure 1017 hPa
Elevation 204
METAR ENGM 210350Z VRB02KT CAVOK 06/04 Q1017 NOSIG
Observed Flight Rules
Aug-21 @ 03:50 UTC
(22 minutes ago)
VFR
Wind Visibility
Variable at 2 knots 10,000+ meters
Clouds
  • Clear skies
Temperature Dewpoint
6°C / 43°F 4°C / 39°F
Humidity Altimeter Pressure
87% 30.03" Hg 1017 hPa